sensor_id;sensor_type;location;lat;lon;timestamp;temperature;humidity
3246;DHT22;1635;48.000;10.582;2022-12-01T00:01:14;18.60;99.90
3246;DHT22;1635;48.000;10.582;2022-12-01T00:03:41;18.50;99.90
3246;DHT22;1635;48.000;10.582;2022-12-01T00:06:14;18.50;99.90
3246;DHT22;1635;48.000;10.582;2022-12-01T00:08:43;18.50;99.90
3246;DHT22;1635;48.000;10.582;2022-12-01T00:11:31;18.50;99.90
3246;DHT22;1635;48.000;10.582;2022-12-01T00:13:58;18.40;99.90
3246;DHT22;1635;48.000;10.582;2022-12-01T00:16:25;18.40;99.90
3246;DHT22;1635;48.000;10.582;2022-12-01T00:18:53;18.40;99.90
3246;DHT22;1635;48.000;10.582;2022-12-01T00:21:22;18.40;99.90
3246;DHT22;1635;48.000;10.582;2022-12-01T00:23:52;18.30;99.90
3246;DHT22;1635;48.000;10.582;2022-12-01T00:26:20;18.30;99.90
3246;DHT22;1635;48.000;10.582;2022-12-01T00:28:56;18.30;99.90
3246;DHT22;1635;48.000;10.582;2022-12-01T00:31:24;18.30;99.90
3246;DHT22;1635;48.000;10.582;2022-12-01T00:33:52;18.20;99.90
3246;DHT22;1635;48.000;10.582;2022-12-01T00:36:18;18.20;99.90
3246;DHT22;1635;48.000;10.582;2022-12-01T00:38:46;18.20;99.90
3246;DHT22;1635;48.000;10.582;2022-12-01T00:41:13;18.20;99.90
3246;DHT22;1635;48.000;10.582;2022-12-01T00:43:40;18.20;99.90
3246;DHT22;1635;48.000;10.582;2022-12-01T00:46:06;18.20;99.90
3246;DHT22;1635;48.000;10.582;2022-12-01T00:48:33;18.10;99.90
3246;DHT22;1635;48.000;10.582;2022-12-01T00:51:00;18.10;99.90
3246;DHT22;1635;48.000;10.582;2022-12-01T00:53:28;18.10;99.90
3246;DHT22;1635;48.000;10.582;2022-12-01T00:55:55;18.10;99.90
3246;DHT22;1635;48.000;10.582;2022-12-01T00:58:22;18.10;99.90
3246;DHT22;1635;48.000;10.582;2022-12-01T01:01:00;18.00;99.90
3246;DHT22;1635;48.000;10.582;2022-12-01T01:03:28;18.00;99.90
3246;DHT22;1635;48.000;10.582;2022-12-01T01:05:55;18.00;99.90
3246;DHT22;1635;48.000;10.582;2022-12-01T01:08:22;18.00;99.90
3246;DHT22;1635;48.000;10.582;2022-12-01T01:10:49;18.00;99.90
3246;DHT22;1635;48.000;10.582;2022-12-01T01:13:17;18.00;99.90
3246;DHT22;1635;48.000;10.582;2022-12-01T01:15:44;18.00;99.90
3246;DHT22;1635;48.000;10.582;2022-12-01T01:18:11;18.00;99.90
3246;DHT22;1635;48.000;10.582;2022-12-01T01:20:38;17.90;99.90
3246;DHT22;1635;48.000;10.582;2022-12-01T01:23:05;17.90;99.90
3246;DHT22;1635;48.000;10.582;2022-12-01T01:25:32;17.90;99.90
3246;DHT22;1635;48.000;10.582;2022-12-01T01:27:59;17.90;99.90
3246;DHT22;1635;48.000;10.582;2022-12-01T01:30:26;17.90;99.90
3246;DHT22;1635;48.000;10.582;2022-12-01T01:32:53;17.90;99.90
3246;DHT22;1635;48.000;10.582;2022-12-01T01:35:20;17.90;99.90
3246;DHT22;1635;48.000;10.582;2022-12-01T01:37:46;17.90;99.90
3246;DHT22;1635;48.000;10.582;2022-12-01T01:40:15;17.80;99.90
3246;DHT22;1635;48.000;10.582;2022-12-01T01:42:41;17.80;99.90
3246;DHT22;1635;48.000;10.582;2022-12-01T01:45:28;17.80;99.90
3246;DHT22;1635;48.000;10.582;2022-12-01T01:47:58;17.80;99.90
3246;DHT22;1635;48.000;10.582;2022-12-01T01:50:26;17.80;99.90
3246;DHT22;1635;48.000;10.582;2022-12-01T01:53:08;17.80;99.90
3246;DHT22;1635;48.000;10.582;2022-12-01T01:55:37;17.80;99.90
3246;DHT22;1635;48.000;10.582;2022-12-01T01:58:06;17.80;99.90
3246;DHT22;1635;48.000;10.582;2022-12-01T02:00:35;17.70;99.90
3246;DHT22;1635;48.000;10.582;2022-12-01T02:03:03;17.70;99.90
3246;DHT22;1635;48.000;10.582;2022-12-01T02:05:38;17.70;99.90
3246;DHT22;1635;48.000;10.582;2022-12-01T02:08:05;17.70;99.90
3246;DHT22;1635;48.000;10.582;2022-12-01T02:31:16;17.70;99.90
3246;DHT22;1635;48.000;10.582;2022-12-01T02:33:53;17.60;99.90
3246;DHT22;1635;48.000;10.582;2022-12-01T02:36:37;17.60;99.90
3246;DHT22;1635;48.000;10.582;2022-12-01T02:42:25;17.60;99.90
3246;DHT22;1635;48.000;10.582;2022-12-01T02:45:17;17.60;99.90
3246;DHT22;1635;48.000;10.582;2022-12-01T02:47:48;17.60;99.90
3246;DHT22;1635;48.000;10.582;2022-12-01T02:50:17;17.60;99.90
3246;DHT22;1635;48.000;10.582;2022-12-01T02:52:45;17.60;99.90
3246;DHT22;1635;48.000;10.582;2022-12-01T02:55:12;17.60;99.90
3246;DHT22;1635;48.000;10.582;2022-12-01T02:57:39;17.60;99.90
3246;DHT22;1635;48.000;10.582;2022-12-01T03:00:06;17.60;99.90
3246;DHT22;1635;48.000;10.582;2022-12-01T03:03:18;17.60;99.90
3246;DHT22;1635;48.000;10.582;2022-12-01T03:05:51;17.60;99.90
3246;DHT22;1635;48.000;10.582;2022-12-01T03:10:58;17.50;99.90
3246;DHT22;1635;48.000;10.582;2022-12-01T03:13:47;17.50;99.90
3246;DHT22;1635;48.000;10.582;2022-12-01T03:16:45;17.50;99.90
3246;DHT22;1635;48.000;10.582;2022-12-01T03:19:20;17.50;99.90
3246;DHT22;1635;48.000;10.582;2022-12-01T03:22:25;17.50;99.90
3246;DHT22;1635;48.000;10.582;2022-12-01T03:24:55;17.50;99.90
3246;DHT22;1635;48.000;10.582;2022-12-01T03:27:27;17.50;99.90
3246;DHT22;1635;48.000;10.582;2022-12-01T03:29:57;17.50;99.90
3246;DHT22;1635;48.000;10.582;2022-12-01T03:32:34;17.60;99.90
3246;DHT22;1635;48.000;10.582;2022-12-01T03:35:22;17.60;99.90
3246;DHT22;1635;48.000;10.582;2022-12-01T03:37:56;17.60;99.90
3246;DHT22;1635;48.000;10.582;2022-12-01T03:40:25;17.60;99.90
3246;DHT22;1635;48.000;10.582;2022-12-01T03:43:02;17.60;99.90
3246;DHT22;1635;48.000;10.582;2022-12-01T03:48:30;17.60;99.90
3246;DHT22;1635;48.000;10.582;2022-12-01T03:57:05;17.60;99.90
3246;DHT22;1635;48.000;10.582;2022-12-01T03:59:35;17.60;99.90
3246;DHT22;1635;48.000;10.582;2022-12-01T04:02:06;17.60;99.90
3246;DHT22;1635;48.000;10.582;2022-12-01T04:04:33;17.60;99.90
3246;DHT22;1635;48.000;10.582;2022-12-01T04:07:00;17.60;99.90
3246;DHT22;1635;48.000;10.582;2022-12-01T04:09:27;17.60;99.90
3246;DHT22;1635;48.000;10.582;2022-12-01T04:11:54;17.60;99.90
3246;DHT22;1635;48.000;10.582;2022-12-01T04:14:39;17.60;99.90
3246;DHT22;1635;48.000;10.582;2022-12-01T04:17:06;17.60;99.90
3246;DHT22;1635;48.000;10.582;2022-12-01T04:19:33;17.60;99.90
3246;DHT22;1635;48.000;10.582;2022-12-01T04:22:00;17.60;99.90
3246;DHT22;1635;48.000;10.582;2022-12-01T04:24:29;17.60;99.90
3246;DHT22;1635;48.000;10.582;2022-12-01T04:26:56;17.60;99.90
3246;DHT22;1635;48.000;10.582;2022-12-01T04:29:23;17.60;99.90
3246;DHT22;1635;48.000;10.582;2022-12-01T04:31:50;17.60;99.90
3246;DHT22;1635;48.000;10.582;2022-12-01T04:34:17;17.60;99.90
3246;DHT22;1635;48.000;10.582;2022-12-01T04:36:43;17.60;99.90
3246;DHT22;1635;48.000;10.582;2022-12-01T04:39:10;17.60;99.90
3246;DHT22;1635;48.000;10.582;2022-12-01T04:41:37;17.60;99.90
3246;DHT22;1635;48.000;10.582;2022-12-01T04:44:04;17.60;99.90
3246;DHT22;1635;48.000;10.582;2022-12-01T04:46:31;17.60;99.90
3246;DHT22;1635;48.000;10.582;2022-12-01T04:48:58;17.60;99.90
3246;DHT22;1635;48.000;10.582;2022-12-01T04:51:25;17.60;99.90
3246;DHT22;1635;48.000;10.582;2022-12-01T04:53:51;17.60;99.90
3246;DHT22;1635;48.000;10.582;2022-12-01T04:56:18;17.60;99.90
3246;DHT22;1635;48.000;10.582;2022-12-01T04:58:45;17.60;99.90
3246;DHT22;1635;48.000;10.582;2022-12-01T05:01:14;17.60;99.90
3246;DHT22;1635;48.000;10.582;2022-12-01T05:03:43;17.60;99.90
3246;DHT22;1635;48.000;10.582;2022-12-01T05:06:16;17.60;99.90
3246;DHT22;1635;48.000;10.582;2022-12-01T05:08:43;17.70;99.90
3246;DHT22;1635;48.000;10.582;2022-12-01T05:11:11;17.60;99.90
3246;DHT22;1635;48.000;10.582;2022-12-01T05:13:41;17.70;99.90
3246;DHT22;1635;48.000;10.582;2022-12-01T05:16:16;17.70;99.90
3246;DHT22;1635;48.000;10.582;2022-12-01T05:18:47;17.70;99.90
3246;DHT22;1635;48.000;10.582;2022-12-01T05:21:15;17.70;99.90
3246;DHT22;1635;48.000;10.582;2022-12-01T05:23:42;17.70;99.90
3246;DHT22;1635;48.000;10.582;2022-12-01T05:26:11;17.70;99.90
3246;DHT22;1635;48.000;10.582;2022-12-01T05:28:37;17.70;99.90
3246;DHT22;1635;48.000;10.582;2022-12-01T05:31:06;17.70;99.90
3246;DHT22;1635;48.000;10.582;2022-12-01T05:33:33;17.70;99.90
3246;DHT22;1635;48.000;10.582;2022-12-01T05:36:00;17.80;99.90
3246;DHT22;1635;48.000;10.582;2022-12-01T05:38:28;17.70;99.90
3246;DHT22;1635;48.000;10.582;2022-12-01T05:40:55;17.80;99.90
3246;DHT22;1635;48.000;10.582;2022-12-01T05:43:22;17.70;99.90
3246;DHT22;1635;48.000;10.582;2022-12-01T05:45:49;17.70;99.90
3246;DHT22;1635;48.000;10.582;2022-12-01T05:48:16;17.30;97.80
3246;DHT22;1635;48.000;10.582;2022-12-01T05:50:43;16.90;96.40
3246;DHT22;1635;48.000;10.582;2022-12-01T05:53:13;16.90;96.60
3246;DHT22;1635;48.000;10.582;2022-12-01T05:55:40;16.90;98.50
3246;DHT22;1635;48.000;10.582;2022-12-01T05:58:08;17.00;99.10
3246;DHT22;1635;48.000;10.582;2022-12-01T06:00:35;17.20;99.50
3246;DHT22;1635;48.000;10.582;2022-12-01T06:03:03;17.30;99.90
3246;DHT22;1635;48.000;10.582;2022-12-01T06:05:31;17.30;99.90
3246;DHT22;1635;48.000;10.582;2022-12-01T06:07:57;17.40;99.90
3246;DHT22;1635;48.000;10.582;2022-12-01T06:10:25;17.40;99.90
3246;DHT22;1635;48.000;10.582;2022-12-01T06:12:52;17.50;99.90
3246;DHT22;1635;48.000;10.582;2022-12-01T06:15:18;17.50;99.90
3246;DHT22;1635;48.000;10.582;2022-12-01T06:17:45;17.50;99.90
3246;DHT22;1635;48.000;10.582;2022-12-01T06:20:12;17.60;99.90
3246;DHT22;1635;48.000;10.582;2022-12-01T06:22:39;17.60;99.90
3246;DHT22;1635;48.000;10.582;2022-12-01T06:25:06;17.60;99.90
3246;DHT22;1635;48.000;10.582;2022-12-01T06:27:33;17.70;99.90
3246;DHT22;1635;48.000;10.582;2022-12-01T06:30:00;17.60;99.90
3246;DHT22;1635;48.000;10.582;2022-12-01T06:32:32;17.70;99.90
3246;DHT22;1635;48.000;10.582;2022-12-01T06:34:59;17.70;99.90
3246;DHT22;1635;48.000;10.582;2022-12-01T06:37:26;17.70;99.90
3246;DHT22;1635;48.000;10.582;2022-12-01T06:39:54;17.70;99.90
3246;DHT22;1635;48.000;10.582;2022-12-01T06:42:21;17.70;99.90
3246;DHT22;1635;48.000;10.582;2022-12-01T06:44:48;17.70;99.90
3246;DHT22;1635;48.000;10.582;2022-12-01T06:47:15;17.70;99.90
3246;DHT22;1635;48.000;10.582;2022-12-01T06:49:42;17.80;99.90
3246;DHT22;1635;48.000;10.582;2022-12-01T06:52:09;17.80;99.90
3246;DHT22;1635;48.000;10.582;2022-12-01T06:54:36;17.70;99.90
3246;DHT22;1635;48.000;10.582;2022-12-01T06:57:03;17.80;99.90
3246;DHT22;1635;48.000;10.582;2022-12-01T06:59:30;17.80;99.90
3246;DHT22;1635;48.000;10.582;2022-12-01T07:01:57;17.80;99.90
3246;DHT22;1635;48.000;10.582;2022-12-01T07:04:24;17.80;99.90
3246;DHT22;1635;48.000;10.582;2022-12-01T07:06:51;17.80;99.90
3246;DHT22;1635;48.000;10.582;2022-12-01T07:09:18;17.80;99.90
3246;DHT22;1635;48.000;10.582;2022-12-01T07:11:45;17.80;99.90
3246;DHT22;1635;48.000;10.582;2022-12-01T07:14:18;17.90;99.90
3246;DHT22;1635;48.000;10.582;2022-12-01T07:16:47;17.90;99.90
3246;DHT22;1635;48.000;10.582;2022-12-01T07:19:14;17.80;99.90
3246;DHT22;1635;48.000;10.582;2022-12-01T07:21:40;17.90;99.90
3246;DHT22;1635;48.000;10.582;2022-12-01T07:24:07;17.90;99.90
3246;DHT22;1635;48.000;10.582;2022-12-01T07:26:34;17.90;99.90
3246;DHT22;1635;48.000;10.582;2022-12-01T07:29:01;17.90;99.90
3246;DHT22;1635;48.000;10.582;2022-12-01T07:31:28;17.90;99.90
3246;DHT22;1635;48.000;10.582;2022-12-01T07:33:55;17.90;99.90
3246;DHT22;1635;48.000;10.582;2022-12-01T07:36:21;17.90;99.90
3246;DHT22;1635;48.000;10.582;2022-12-01T07:38:48;17.90;99.90
3246;DHT22;1635;48.000;10.582;2022-12-01T07:41:17;17.90;99.90
3246;DHT22;1635;48.000;10.582;2022-12-01T07:43:46;17.90;99.90
3246;DHT22;1635;48.000;10.582;2022-12-01T07:46:21;17.90;99.90
3246;DHT22;1635;48.000;10.582;2022-12-01T07:48:50;17.90;99.90
3246;DHT22;1635;48.000;10.582;2022-12-01T07:51:19;17.90;99.90
3246;DHT22;1635;48.000;10.582;2022-12-01T07:53:47;17.90;99.90
3246;DHT22;1635;48.000;10.582;2022-12-01T07:56:16;17.90;99.90
3246;DHT22;1635;48.000;10.582;2022-12-01T07:58:43;17.80;99.90
3246;DHT22;1635;48.000;10.582;2022-12-01T08:01:13;17.80;99.90
3246;DHT22;1635;48.000;10.582;2022-12-01T08:03:41;17.90;99.90
3246;DHT22;1635;48.000;10.582;2022-12-01T08:06:09;17.80;99.90
3246;DHT22;1635;48.000;10.582;2022-12-01T08:08:37;17.80;99.90
3246;DHT22;1635;48.000;10.582;2022-12-01T08:11:09;17.80;99.90
3246;DHT22;1635;48.000;10.582;2022-12-01T08:13:37;17.80;99.90
3246;DHT22;1635;48.000;10.582;2022-12-01T08:16:06;17.80;99.90
3246;DHT22;1635;48.000;10.582;2022-12-01T08:18:38;17.80;99.90
3246;DHT22;1635;48.000;10.582;2022-12-01T08:21:06;17.80;99.90
3246;DHT22;1635;48.000;10.582;2022-12-01T08:23:33;17.80;99.90
3246;DHT22;1635;48.000;10.582;2022-12-01T08:26:01;17.80;99.90
3246;DHT22;1635;48.000;10.582;2022-12-01T08:28:29;17.80;99.90
3246;DHT22;1635;48.000;10.582;2022-12-01T08:31:00;17.70;99.90
3246;DHT22;1635;48.000;10.582;2022-12-01T08:33:31;17.70;99.90
3246;DHT22;1635;48.000;10.582;2022-12-01T08:36:01;17.70;99.90
3246;DHT22;1635;48.000;10.582;2022-12-01T08:38:28;17.70;99.90
3246;DHT22;1635;48.000;10.582;2022-12-01T08:41:01;17.70;99.90
3246;DHT22;1635;48.000;10.582;2022-12-01T08:43:27;17.70;99.90
3246;DHT22;1635;48.000;10.582;2022-12-01T08:46:00;17.70;99.90
3246;DHT22;1635;48.000;10.582;2022-12-01T08:48:28;17.70;99.90
3246;DHT22;1635;48.000;10.582;2022-12-01T08:51:08;17.70;99.90
3246;DHT22;1635;48.000;10.582;2022-12-01T08:53:37;17.70;99.90
3246;DHT22;1635;48.000;10.582;2022-12-01T08:58:42;17.70;99.90
3246;DHT22;1635;48.000;10.582;2022-12-01T09:01:13;17.70;99.90
3246;DHT22;1635;48.000;10.582;2022-12-01T09:03:41;17.70;99.90
3246;DHT22;1635;48.000;10.582;2022-12-01T09:06:17;17.70;99.90
3246;DHT22;1635;48.000;10.582;2022-12-01T09:08:48;17.70;99.90
3246;DHT22;1635;48.000;10.582;2022-12-01T09:11:18;17.70;99.90
3246;DHT22;1635;48.000;10.582;2022-12-01T09:13:46;17.70;99.90
3246;DHT22;1635;48.000;10.582;2022-12-01T09:16:14;17.70;99.90
3246;DHT22;1635;48.000;10.582;2022-12-01T09:18:42;17.70;99.90
3246;DHT22;1635;48.000;10.582;2022-12-01T09:21:18;17.70;99.90
3246;DHT22;1635;48.000;10.582;2022-12-01T09:23:46;17.70;99.90
3246;DHT22;1635;48.000;10.582;2022-12-01T09:26:14;17.70;99.90
3246;DHT22;1635;48.000;10.582;2022-12-01T09:28:45;17.70;99.90
3246;DHT22;1635;48.000;10.582;2022-12-01T09:31:13;17.70;99.90
3246;DHT22;1635;48.000;10.582;2022-12-01T09:33:41;17.70;99.90
3246;DHT22;1635;48.000;10.582;2022-12-01T09:36:08;17.70;99.90
3246;DHT22;1635;48.000;10.582;2022-12-01T09:38:36;17.70;99.90
3246;DHT22;1635;48.000;10.582;2022-12-01T09:41:32;17.70;99.90
3246;DHT22;1635;48.000;10.582;2022-12-01T09:47:05;17.80;99.90
3246;DHT22;1635;48.000;10.582;2022-12-01T09:49:51;17.80;99.90
3246;DHT22;1635;48.000;10.582;2022-12-01T09:52:23;17.80;99.90
3246;DHT22;1635;48.000;10.582;2022-12-01T09:54:52;17.80;99.90
3246;DHT22;1635;48.000;10.582;2022-12-01T09:57:37;17.80;99.90
3246;DHT22;1635;48.000;10.582;2022-12-01T10:00:23;17.80;99.90
3246;DHT22;1635;48.000;10.582;2022-12-01T10:05:50;17.80;99.90
3246;DHT22;1635;48.000;10.582;2022-12-01T10:08:26;17.80;99.90
3246;DHT22;1635;48.000;10.582;2022-12-01T10:10:58;17.80;99.90
3246;DHT22;1635;48.000;10.582;2022-12-01T10:13:31;17.90;99.90
3246;DHT22;1635;48.000;10.582;2022-12-01T10:16:17;17.90;99.90
3246;DHT22;1635;48.000;10.582;2022-12-01T10:19:00;17.90;99.90
3246;DHT22;1635;48.000;10.582;2022-12-01T10:22:07;17.90;99.90
3246;DHT22;1635;48.000;10.582;2022-12-01T10:25:10;17.90;99.90
3246;DHT22;1635;48.000;10.582;2022-12-01T10:28:03;17.90;99.90
3246;DHT22;1635;48.000;10.582;2022-12-01T10:30:39;17.90;99.90
3246;DHT22;1635;48.000;10.582;2022-12-01T10:33:26;17.90;99.90
3246;DHT22;1635;48.000;10.582;2022-12-01T10:35:54;17.90;99.90
3246;DHT22;1635;48.000;10.582;2022-12-01T10:38:34;17.90;99.90
3246;DHT22;1635;48.000;10.582;2022-12-01T10:41:02;17.90;99.90
3246;DHT22;1635;48.000;10.582;2022-12-01T10:43:40;17.90;99.90
3246;DHT22;1635;48.000;10.582;2022-12-01T10:46:23;17.80;99.90
3246;DHT22;1635;48.000;10.582;2022-12-01T10:48:59;17.90;99.90
3246;DHT22;1635;48.000;10.582;2022-12-01T10:51:52;17.90;99.90
3246;DHT22;1635;48.000;10.582;2022-12-01T10:54:21;17.90;99.90
3246;DHT22;1635;48.000;10.582;2022-12-01T10:56:54;17.90;99.90
3246;DHT22;1635;48.000;10.582;2022-12-01T10:59:27;17.90;99.90
3246;DHT22;1635;48.000;10.582;2022-12-01T11:01:56;17.90;99.90
3246;DHT22;1635;48.000;10.582;2022-12-01T11:04:37;17.80;99.90
3246;DHT22;1635;48.000;10.582;2022-12-01T11:10:14;17.80;99.90
3246;DHT22;1635;48.000;10.582;2022-12-01T11:12:44;17.80;99.90
3246;DHT22;1635;48.000;10.582;2022-12-01T11:15:28;17.80;99.90
3246;DHT22;1635;48.000;10.582;2022-12-01T11:18:05;17.80;99.90
3246;DHT22;1635;48.000;10.582;2022-12-01T11:20:45;17.80;99.90
3246;DHT22;1635;48.000;10.582;2022-12-01T11:23:25;17.80;99.90
3246;DHT22;1635;48.000;10.582;2022-12-01T11:26:27;17.80;99.90
3246;DHT22;1635;48.000;10.582;2022-12-01T11:29:06;17.80;99.90
3246;DHT22;1635;48.000;10.582;2022-12-01T11:31:45;17.80;99.90
3246;DHT22;1635;48.000;10.582;2022-12-01T11:36:54;17.80;99.90
3246;DHT22;1635;48.000;10.582;2022-12-01T11:39:39;17.80;99.90
3246;DHT22;1635;48.000;10.582;2022-12-01T11:42:27;17.80;99.90
3246;DHT22;1635;48.000;10.582;2022-12-01T11:48:15;17.70;99.90
3246;DHT22;1635;48.000;10.582;2022-12-01T11:56:21;17.70;99.90
3246;DHT22;1635;48.000;10.582;2022-12-01T11:59:16;17.70;99.90
3246;DHT22;1635;48.000;10.582;2022-12-01T12:07:28;17.70;99.90
3246;DHT22;1635;48.000;10.582;2022-12-01T12:10:32;17.70;99.90
3246;DHT22;1635;48.000;10.582;2022-12-01T12:13:34;17.60;99.90
3246;DHT22;1635;48.000;10.582;2022-12-01T12:19:20;17.70;99.90
3246;DHT22;1635;48.000;10.582;2022-12-01T12:25:29;17.70;99.90
3246;DHT22;1635;48.000;10.582;2022-12-01T12:31:52;17.70;99.90
3246;DHT22;1635;48.000;10.582;2022-12-01T12:37:09;17.80;99.90
3246;DHT22;1635;48.000;10.582;2022-12-01T12:40:08;17.70;99.90
3246;DHT22;1635;48.000;10.582;2022-12-01T12:45:46;17.80;99.90
3246;DHT22;1635;48.000;10.582;2022-12-01T12:48:44;17.80;99.90
3246;DHT22;1635;48.000;10.582;2022-12-01T12:51:19;17.80;99.90
3246;DHT22;1635;48.000;10.582;2022-12-01T12:54:02;17.80;99.90
3246;DHT22;1635;48.000;10.582;2022-12-01T12:56:34;17.90;99.90
3246;DHT22;1635;48.000;10.582;2022-12-01T12:59:08;17.80;99.90
3246;DHT22;1635;48.000;10.582;2022-12-01T13:01:40;17.80;99.90
3246;DHT22;1635;48.000;10.582;2022-12-01T13:04:33;17.90;99.90
3246;DHT22;1635;48.000;10.582;2022-12-01T13:09:56;17.90;99.90
3246;DHT22;1635;48.000;10.582;2022-12-01T13:12:31;17.80;99.90
3246;DHT22;1635;48.000;10.582;2022-12-01T13:15:16;17.80;99.90
3246;DHT22;1635;48.000;10.582;2022-12-01T13:18:03;17.80;99.90
3246;DHT22;1635;48.000;10.582;2022-12-01T13:20:35;17.80;99.90
3246;DHT22;1635;48.000;10.582;2022-12-01T13:23:04;17.80;99.90
3246;DHT22;1635;48.000;10.582;2022-12-01T13:25:36;17.80;99.90
3246;DHT22;1635;48.000;10.582;2022-12-01T13:28:22;17.80;99.90
3246;DHT22;1635;48.000;10.582;2022-12-01T13:31:04;17.80;99.90
3246;DHT22;1635;48.000;10.582;2022-12-01T13:33:32;17.80;99.90
3246;DHT22;1635;48.000;10.582;2022-12-01T13:36:00;17.80;99.90
3246;DHT22;1635;48.000;10.582;2022-12-01T13:38:33;17.80;99.90
3246;DHT22;1635;48.000;10.582;2022-12-01T13:46:26;17.80;99.90
3246;DHT22;1635;48.000;10.582;2022-12-01T13:48:56;17.70;99.90
3246;DHT22;1635;48.000;10.582;2022-12-01T13:51:24;17.80;99.90
3246;DHT22;1635;48.000;10.582;2022-12-01T13:54:15;17.80;99.90
3246;DHT22;1635;48.000;10.582;2022-12-01T13:57:03;17.70;99.90
3246;DHT22;1635;48.000;10.582;2022-12-01T14:02:40;17.70;99.90
3246;DHT22;1635;48.000;10.582;2022-12-01T14:07:52;17.70;99.90
3246;DHT22;1635;48.000;10.582;2022-12-01T14:10:30;17.70;99.90
3246;DHT22;1635;48.000;10.582;2022-12-01T14:13:03;17.70;99.90
3246;DHT22;1635;48.000;10.582;2022-12-01T14:15:38;17.70;99.90
3246;DHT22;1635;48.000;10.582;2022-12-01T14:18:28;17.70;99.90
3246;DHT22;1635;48.000;10.582;2022-12-01T14:20:57;17.70;99.90
3246;DHT22;1635;48.000;10.582;2022-12-01T14:23:29;17.70;99.90
3246;DHT22;1635;48.000;10.582;2022-12-01T14:26:14;17.70;99.90
3246;DHT22;1635;48.000;10.582;2022-12-01T14:29:28;17.70;99.90
3246;DHT22;1635;48.000;10.582;2022-12-01T14:34:30;17.70;99.90
3246;DHT22;1635;48.000;10.582;2022-12-01T14:37:07;17.70;99.90
3246;DHT22;1635;48.000;10.582;2022-12-01T14:39:41;17.60;99.90
3246;DHT22;1635;48.000;10.582;2022-12-01T14:42:40;17.60;99.90
3246;DHT22;1635;48.000;10.582;2022-12-01T14:45:46;17.70;99.90
3246;DHT22;1635;48.000;10.582;2022-12-01T14:48:20;17.70;99.90
3246;DHT22;1635;48.000;10.582;2022-12-01T14:51:11;17.70;99.90
3246;DHT22;1635;48.000;10.582;2022-12-01T14:53:42;17.70;99.90
3246;DHT22;1635;48.000;10.582;2022-12-01T14:56:16;17.70;99.90
3246;DHT22;1635;48.000;10.582;2022-12-01T14:58:58;17.70;99.90
3246;DHT22;1635;48.000;10.582;2022-12-01T15:01:34;17.70;99.90
3246;DHT22;1635;48.000;10.582;2022-12-01T15:04:04;17.70;99.90
3246;DHT22;1635;48.000;10.582;2022-12-01T15:06:33;17.70;99.90
3246;DHT22;1635;48.000;10.582;2022-12-01T15:09:15;17.70;99.90
3246;DHT22;1635;48.000;10.582;2022-12-01T15:11:59;17.70;99.90
3246;DHT22;1635;48.000;10.582;2022-12-01T15:14:34;17.70;99.90
3246;DHT22;1635;48.000;10.582;2022-12-01T15:17:02;17.70;99.90
3246;DHT22;1635;48.000;10.582;2022-12-01T15:19:38;17.70;99.90
3246;DHT22;1635;48.000;10.582;2022-12-01T15:22:16;17.80;99.90
3246;DHT22;1635;48.000;10.582;2022-12-01T15:24:44;17.80;99.90
3246;DHT22;1635;48.000;10.582;2022-12-01T15:27:41;17.70;99.90
3246;DHT22;1635;48.000;10.582;2022-12-01T15:30:13;17.80;99.90
3246;DHT22;1635;48.000;10.582;2022-12-01T15:32:43;17.80;99.90
3246;DHT22;1635;48.000;10.582;2022-12-01T15:35:18;17.80;99.90
3246;DHT22;1635;48.000;10.582;2022-12-01T15:37:46;17.80;99.90
3246;DHT22;1635;48.000;10.582;2022-12-01T15:40:17;17.80;99.90
3246;DHT22;1635;48.000;10.582;2022-12-01T15:42:44;17.80;99.90
3246;DHT22;1635;48.000;10.582;2022-12-01T15:45:22;17.80;99.90
3246;DHT22;1635;48.000;10.582;2022-12-01T15:47:51;17.80;99.90
3246;DHT22;1635;48.000;10.582;2022-12-01T15:53:29;17.80;99.90
3246;DHT22;1635;48.000;10.582;2022-12-01T15:56:00;17.80;99.90
3246;DHT22;1635;48.000;10.582;2022-12-01T15:58:32;17.80;99.90
3246;DHT22;1635;48.000;10.582;2022-12-01T16:01:11;17.80;99.90
3246;DHT22;1635;48.000;10.582;2022-12-01T16:03:53;17.80;99.90
3246;DHT22;1635;48.000;10.582;2022-12-01T16:06:26;17.80;99.90
3246;DHT22;1635;48.000;10.582;2022-12-01T16:09:00;17.80;99.90
3246;DHT22;1635;48.000;10.582;2022-12-01T16:11:30;17.80;99.90
3246;DHT22;1635;48.000;10.582;2022-12-01T16:14:21;17.80;99.90
3246;DHT22;1635;48.000;10.582;2022-12-01T16:16:50;17.80;99.90
3246;DHT22;1635;48.000;10.582;2022-12-01T16:19:30;17.80;99.90
3246;DHT22;1635;48.000;10.582;2022-12-01T16:24:50;17.80;99.90
3246;DHT22;1635;48.000;10.582;2022-12-01T16:27:20;17.80;99.90
3246;DHT22;1635;48.000;10.582;2022-12-01T16:30:02;17.80;99.90
3246;DHT22;1635;48.000;10.582;2022-12-01T16:32:40;17.80;99.90
3246;DHT22;1635;48.000;10.582;2022-12-01T16:35:26;17.70;99.90
3246;DHT22;1635;48.000;10.582;2022-12-01T16:37:53;17.80;99.90
3246;DHT22;1635;48.000;10.582;2022-12-01T16:40:20;17.80;99.90
3246;DHT22;1635;48.000;10.582;2022-12-01T16:42:46;17.80;99.90
3246;DHT22;1635;48.000;10.582;2022-12-01T16:45:15;17.80;99.90
3246;DHT22;1635;48.000;10.582;2022-12-01T16:47:46;17.80;99.90
3246;DHT22;1635;48.000;10.582;2022-12-01T16:50:17;17.80;99.90
3246;DHT22;1635;48.000;10.582;2022-12-01T16:52:45;17.70;99.90
3246;DHT22;1635;48.000;10.582;2022-12-01T16:58:08;17.70;99.90
3246;DHT22;1635;48.000;10.582;2022-12-01T17:00:35;17.70;99.90
3246;DHT22;1635;48.000;10.582;2022-12-01T17:03:03;17.80;99.90
3246;DHT22;1635;48.000;10.582;2022-12-01T17:05:31;17.70;99.90
3246;DHT22;1635;48.000;10.582;2022-12-01T17:07:59;17.70;99.90
3246;DHT22;1635;48.000;10.582;2022-12-01T17:10:25;17.70;99.90
3246;DHT22;1635;48.000;10.582;2022-12-01T17:12:53;17.70;99.90
3246;DHT22;1635;48.000;10.582;2022-12-01T17:15:20;17.70;99.90
3246;DHT22;1635;48.000;10.582;2022-12-01T17:17:47;17.70;99.90
3246;DHT22;1635;48.000;10.582;2022-12-01T17:20:15;17.70;99.90
3246;DHT22;1635;48.000;10.582;2022-12-01T17:22:42;17.70;99.90
3246;DHT22;1635;48.000;10.582;2022-12-01T17:25:09;17.70;99.90
3246;DHT22;1635;48.000;10.582;2022-12-01T17:27:36;17.70;99.90
3246;DHT22;1635;48.000;10.582;2022-12-01T17:30:05;17.70;99.90
3246;DHT22;1635;48.000;10.582;2022-12-01T17:32:32;17.70;99.90
3246;DHT22;1635;48.000;10.582;2022-12-01T17:35:00;17.70;99.90
3246;DHT22;1635;48.000;10.582;2022-12-01T17:37:29;17.70;99.90
3246;DHT22;1635;48.000;10.582;2022-12-01T17:39:56;17.70;99.90
3246;DHT22;1635;48.000;10.582;2022-12-01T17:42:23;17.70;99.90
3246;DHT22;1635;48.000;10.582;2022-12-01T17:44:50;17.70;99.90
3246;DHT22;1635;48.000;10.582;2022-12-01T17:47:17;17.60;99.90
3246;DHT22;1635;48.000;10.582;2022-12-01T17:49:43;17.70;99.90
3246;DHT22;1635;48.000;10.582;2022-12-01T17:52:11;17.70;99.90
3246;DHT22;1635;48.000;10.582;2022-12-01T17:54:37;17.70;99.90
3246;DHT22;1635;48.000;10.582;2022-12-01T17:57:04;17.70;99.90
3246;DHT22;1635;48.000;10.582;2022-12-01T17:59:33;17.70;99.90
3246;DHT22;1635;48.000;10.582;2022-12-01T18:02:02;17.60;99.90
3246;DHT22;1635;48.000;10.582;2022-12-01T18:04:30;17.60;99.90